Time;durP1;ratioP1;P1;durP2;ratioP2;P2;SDS_P1;SDS_P2;PMS_P1;PMS_P2;Temp;Humidity;BMP_temperature;BMP_pressure;BME280_temperature;BME280_humidity;BME280_pressure;Samples;Min_cycle;Max_cycle;Signal;HPM_P1;HPM_P2
2023/06/23 00:01:11;;;;;;;4.93;4.53;;;;;;;19.36;86.28;95680.28;5011614;28;20557;-81
2023/06/23 00:03:38;;;;;;;7.00;4.75;;;;;;;19.37;86.58;95678.47;5007513;28;20551;-81
2023/06/23 00:06:04;;;;;;;5.63;4.85;;;;;;;19.29;86.61;95676.84;4991600;28;20654;-82
2023/06/23 00:08:30;;;;;;;4.88;4.47;;;;;;;19.56;85.02;95684.78;4994320;28;20200;-82
2023/06/23 00:10:56;;;;;;;5.60;5.20;;;;;;;19.50;85.43;95689.84;4994002;28;20199;-81
2023/06/23 00:13:22;;;;;;;5.50;5.05;;;;;;;19.36;86.70;95698.72;4985825;28;20208;-82
2023/06/23 00:15:48;;;;;;;5.00;4.60;;;;;;;19.48;86.15;95702.41;4993782;28;20291;-82
2023/06/23 00:18:13;;;;;;;4.93;4.50;;;;;;;19.33;86.37;95703.56;4991945;28;20184;-83
2023/06/23 00:20:39;;;;;;;5.03;4.60;;;;;;;19.14;87.04;95702.50;4983781;28;20662;-80
2023/06/23 00:23:04;;;;;;;4.80;4.30;;;;;;;19.08;86.62;95705.91;4993873;28;20196;-80
2023/06/23 00:25:29;;;;;;;3.95;3.63;;;;;;;19.02;86.94;95719.84;4989343;28;20183;-81
2023/06/23 00:27:55;;;;;;;5.97;3.60;;;;;;;19.09;86.71;95734.69;4980915;28;20275;-81
2023/06/23 00:30:20;;;;;;;3.92;3.63;;;;;;;19.09;86.35;95733.88;4994167;28;20199;-81
2023/06/23 00:32:45;;;;;;;3.75;3.42;;;;;;;18.95;86.82;95741.69;4993362;28;20855;-81
2023/06/23 00:35:13;;;;;;;4.47;4.07;;;;;;;19.11;85.53;95748.44;4990357;28;20681;-81
2023/06/23 00:37:38;;;;;;;4.70;3.88;;;;;;;18.98;85.73;95752.81;4973312;28;20195;-82
2023/06/23 00:40:07;;;;;;;4.10;3.67;;;;;;;19.01;85.53;95749.81;4986620;28;20206;-82
2023/06/23 00:42:43;;;;;;;4.03;3.60;;;;;;;18.89;86.52;95766.13;4997088;28;20245;-83
2023/06/23 00:45:09;;;;;;;6.60;3.90;;;;;;;19.02;86.28;95767.22;4997377;28;20197;-83
2023/06/23 00:47:34;;;;;;;4.78;3.47;;;;;;;18.91;87.21;95768.59;5011182;28;20243;-82
2023/06/23 00:50:00;;;;;;;4.50;3.90;;;;;;;18.81;88.31;95774.19;4993548;28;20287;-83
2023/06/23 00:52:25;;;;;;;5.43;3.83;;;;;;;18.99;87.85;95775.50;4995382;28;20204;-81
2023/06/23 00:54:51;;;;;;;4.70;4.30;;;;;;;18.81;89.06;95776.81;4977032;28;20780;-83
2023/06/23 00:57:16;;;;;;;5.10;4.60;;;;;;;18.57;90.22;95779.88;4994160;28;20183;-84
2023/06/23 00:59:41;;;;;;;4.97;4.57;;;;;;;18.55;90.36;95784.50;4989064;28;20192;-82
2023/06/23 01:02:06;;;;;;;5.55;4.72;;;;;;;18.33;90.41;95789.78;4991675;28;20200;-83
2023/06/23 01:04:33;;;;;;;5.32;4.82;;;;;;;18.13;90.34;95798.53;4992585;28;20204;-83
2023/06/23 01:07:17;;;;;;;4.97;4.47;;;;;;;18.20;90.96;95796.75;4989079;28;20202;-83
2023/06/23 01:09:47;;;;;;;5.15;4.57;;;;;;;17.91;92.57;95797.69;4987993;28;20184;-83
2023/06/23 01:12:34;;;;;;;6.28;4.60;;;;;;;18.09;91.46;95803.31;4993158;28;20241;-83
2023/06/23 01:15:08;;;;;;;5.15;4.28;;;;;;;17.88;92.18;95811.19;4992542;28;20226;-83
2023/06/23 01:17:44;;;;;;;5.18;4.68;;;;;;;17.87;91.34;95813.03;5008706;28;20187;-82
2023/06/23 01:20:21;;;;;;;5.78;4.45;;;;;;;17.82;90.76;95815.38;4993910;28;20191;-83
2023/06/23 01:23:08;;;;;;;6.15;4.88;;;;;;;17.79;91.21;95813.94;4986457;28;20219;-83
2023/06/23 01:25:40;;;;;;;5.90;4.50;;;;;;;17.61;92.76;95826.63;4994715;28;20229;-83
2023/06/23 01:28:50;;;;;;;3.50;3.20;;;;;;;17.72;92.97;95825.38;4990651;28;20654;-84
2023/06/23 01:31:23;;;;;;;3.65;2.67;;;;;;;17.85;92.01;95820.28;4972695;28;20559;-84
2023/06/23 01:33:51;;;;;;;2.28;2.08;;;;;;;17.60;92.67;95827.63;5004041;28;20228;-84
2023/06/23 01:36:45;;;;;;;2.35;2.13;;;;;;;17.73;92.16;95825.19;4985996;28;20196;-84
2023/06/23 01:39:17;;;;;;;3.65;2.35;;;;;;;17.51;93.66;95824.31;4984578;28;20666;-84
2023/06/23 01:41:46;;;;;;;2.75;2.47;;;;;;;17.72;92.99;95820.13;4993847;28;20266;-84
2023/06/23 01:44:14;;;;;;;2.78;2.58;;;;;;;17.64;92.19;95831.50;4992012;28;20654;-84
2023/06/23 01:46:42;;;;;;;3.70;3.40;;;;;;;17.45;94.02;95817.16;4992265;28;20187;-83
2023/06/23 01:49:11;;;;;;;4.70;4.10;;;;;;;17.52;94.04;95819.88;4992391;28;20295;-83
2023/06/23 01:51:39;;;;;;;6.63;5.57;;;;;;;17.35;94.40;95813.19;4992216;28;20257;-82
2023/06/23 01:54:06;;;;;;;6.18;5.57;;;;;;;17.44;93.92;95810.28;4988632;28;20207;-83
2023/06/23 01:56:32;;;;;;;6.13;5.50;;;;;;;17.42;93.66;95814.09;4991562;28;20176;-82
2023/06/23 01:58:58;;;;;;;7.68;6.95;;;;;;;17.40;94.55;95806.38;4976391;28;20684;-84
2023/06/23 02:01:24;;;;;;;7.88;7.18;;;;;;;17.33;95.49;95809.94;4981188;28;20184;-82
2023/06/23 02:03:49;;;;;;;8.05;7.25;;;;;;;17.34;94.65;95808.94;4986667;28;20203;-83
2023/06/23 02:06:15;;;;;;;8.88;7.97;;;;;;;17.32;94.10;95803.06;4990266;28;20180;-83
2023/06/23 02:08:41;;;;;;;9.13;8.20;;;;;;;17.41;93.88;95818.53;4992772;28;20564;-83
2023/06/23 02:11:07;;;;;;;10.00;9.02;;;;;;;17.39;94.26;95817.88;4993144;28;20195;-83
2023/06/23 02:13:33;;;;;;;10.50;9.38;;;;;;;17.43;93.61;95810.47;4988543;28;20555;-81
2023/06/23 02:16:00;;;;;;;9.80;8.80;;;;;;;17.33;93.76;95820.44;4990336;28;20239;-83
2023/06/23 02:18:26;;;;;;;12.18;9.95;;;;;;;17.24;94.35;95812.66;4978693;28;20196;-83
2023/06/23 02:20:53;;;;;;;9.75;8.80;;;;;;;17.41;92.95;95818.53;4992285;28;20211;-83
2023/06/23 02:23:19;;;;;;;11.13;10.02;;;;;;;17.20;93.92;95816.63;4992196;28;20608;-83
2023/06/23 02:25:45;;;;;;;11.93;10.73;;;;;;;17.37;93.39;95808.56;4989474;28;20191;-82
2023/06/23 02:28:11;;;;;;;13.07;11.57;;;;;;;17.43;92.81;95821.78;4982947;28;20180;-83
2023/06/23 02:30:38;;;;;;;12.88;11.30;;;;;;;17.25;93.71;95816.91;4992053;28;20188;-83
2023/06/23 02:33:03;;;;;;;12.98;11.68;;;;;;;17.43;93.16;95818.34;4985420;28;20658;-83
2023/06/23 02:35:28;;;;;;;14.52;13.02;;;;;;;17.39;93.08;95817.88;4987828;28;20227;-81
2023/06/23 02:38:08;;;;;;;14.05;12.65;;;;;;;17.26;92.72;95815.09;4990610;28;20183;-83
2023/06/23 02:40:34;;;;;;;13.85;12.45;;;;;;;17.22;93.27;95825.13;4992509;28;20262;-83
2023/06/23 02:43:04;;;;;;;14.68;13.25;;;;;;;17.23;92.86;95832.03;4992188;28;20188;-84
2023/06/23 02:45:34;;;;;;;14.02;12.63;;;;;;;17.22;93.20;95827.75;4992813;28;20243;-83
2023/06/23 02:47:59;;;;;;;15.27;13.77;;;;;;;17.25;92.10;95835.28;4989275;28;20192;-83
2023/06/23 02:50:28;;;;;;;14.68;13.18;;;;;;;17.31;91.25;95828.47;4978760;28;20187;-83
2023/06/23 02:52:58;;;;;;;15.73;13.52;;;;;;;17.20;92.48;95821.06;5005765;28;20183;-83
2023/06/23 02:55:25;;;;;;;13.95;12.55;;;;;;;17.31;91.44;95827.66;5008422;28;20195;-83
2023/06/23 02:57:52;;;;;;;15.15;13.57;;;;;;;17.18;92.16;95830.94;4988712;28;20296;-83
2023/06/23 03:00:22;;;;;;;14.65;13.15;;;;;;;17.23;90.76;95836.47;4992844;28;20188;-83
2023/06/23 03:02:51;;;;;;;15.57;13.85;;;;;;;17.13;91.74;95839.34;4971698;28;20670;-82
2023/06/23 03:05:17;;;;;;;13.77;12.40;;;;;;;17.27;90.70;95843.78;4990621;28;20184;-82
2023/06/23 03:07:42;;;;;;;15.35;13.85;;;;;;;17.34;89.93;95849.13;4991069;28;20187;-83
2023/06/23 03:10:08;;;;;;;14.60;13.18;;;;;;;17.37;90.27;95856.63;4976166;28;20203;-83
2023/06/23 03:12:34;;;;;;;15.73;13.98;;;;;;;17.37;90.76;95856.63;4991894;28;20260;-83
2023/06/23 03:15:00;;;;;;;15.20;12.77;;;;;;;17.39;90.50;95859.06;4989981;28;20287;-82
2023/06/23 03:17:26;;;;;;;15.48;13.88;;;;;;;17.41;90.30;95857.09;4989249;28;20588;-83
2023/06/23 03:19:54;;;;;;;16.67;14.88;;;;;;;17.33;90.72;95854.56;4999064;28;20183;-83
2023/06/23 03:22:32;;;;;;;16.02;14.43;;;;;;;17.54;89.58;95865.94;5008881;28;20712;-82
2023/06/23 03:25:02;;;;;;;16.52;14.48;;;;;;;17.54;89.15;95873.00;5000494;28;20211;-84
2023/06/23 03:27:28;;;;;;;15.73;13.95;;;;;;;17.61;88.89;95876.53;4989203;28;20565;-83
2023/06/23 03:29:58;;;;;;;18.08;16.17;;;;;;;17.44;88.98;95883.78;4991594;28;20192;-83
2023/06/23 03:32:29;;;;;;;18.27;15.60;;;;;;;17.47;89.38;95883.41;4994764;28;20214;-83
2023/06/23 03:34:59;;;;;;;18.42;16.52;;;;;;;17.54;88.74;95889.56;4993746;28;20215;-83
2023/06/23 03:37:26;;;;;;;19.48;17.15;;;;;;;17.32;89.45;95892.31;5009802;28;20191;-83
2023/06/23 03:39:56;;;;;;;20.75;18.23;;;;;;;17.49;89.02;95894.56;4988004;28;20239;-83
2023/06/23 03:42:22;;;;;;;20.35;18.02;;;;;;;17.41;89.15;95897.28;4995234;28;20200;-83
2023/06/23 03:44:47;;;;;;;20.08;17.98;;;;;;;17.50;89.12;95906.69;4984788;28;20246;-83
2023/06/23 03:47:16;;;;;;;21.45;18.75;;;;;;;17.46;89.42;95899.34;4979467;28;20187;-83
2023/06/23 03:49:48;;;;;;;20.95;18.75;;;;;;;17.48;89.33;95903.41;5012155;28;20183;-82
2023/06/23 03:52:15;;;;;;;21.55;19.35;;;;;;;17.45;89.38;95916.09;4994298;28;20684;-82
2023/06/23 03:54:43;;;;;;;23.02;19.20;;;;;;;17.47;88.60;95912.28;4991671;28;20220;-83
2023/06/23 03:57:12;;;;;;;21.15;18.98;;;;;;;17.38;88.53;95908.13;4995417;28;20195;-82
2023/06/23 03:59:38;;;;;;;24.17;20.55;;;;;;;17.61;86.83;95929.06;4976738;28;20547;-83
2023/06/23 04:02:05;;;;;;;23.90;21.52;;;;;;;17.58;87.03;95925.97;4987654;28;20243;-83
2023/06/23 04:04:32;;;;;;;24.45;21.63;;;;;;;17.63;86.82;95921.81;4977365;28;20209;-83
2023/06/23 04:06:58;;;;;;;24.05;21.58;;;;;;;17.88;85.89;95924.16;4990461;28;20185;-83
2023/06/23 04:09:24;;;;;;;24.88;22.05;;;;;;;18.13;84.36;95929.94;4995705;28;20207;-83
2023/06/23 04:11:51;;;;;;;24.50;21.02;;;;;;;18.28;83.64;95930.69;5008582;28;20200;-83
2023/06/23 04:14:18;;;;;;;26.35;23.63;;;;;;;18.21;83.07;95929.81;4993036;28;20212;-83
2023/06/23 04:16:44;;;;;;;25.67;23.05;;;;;;;18.75;79.62;95937.25;4976833;28;20191;-83
2023/06/23 04:19:11;;;;;;;25.88;22.25;;;;;;;18.78;79.28;95931.63;4978423;28;20292;-83
2023/06/23 04:21:37;;;;;;;26.65;23.85;;;;;;;18.39;80.85;95940.72;4994985;28;20211;-83
2023/06/23 04:24:05;;;;;;;29.90;26.58;;;;;;;18.17;82.41;95931.97;4978371;28;20203;-82
2023/06/23 04:26:33;;;;;;;27.23;24.35;;;;;;;18.26;81.50;95948.47;4981025;28;20571;-82
2023/06/23 04:28:59;;;;;;;29.77;26.35;;;;;;;18.20;81.46;95954.44;4995384;28;20207;-83
2023/06/23 04:31:26;;;;;;;29.00;25.88;;;;;;;18.21;82.09;95971.88;4994537;28;20630;-84
2023/06/23 04:33:51;;;;;;;31.98;27.05;;;;;;;18.60;79.87;95971.47;4994349;28;20291;-85
2023/06/23 04:36:20;;;;;;;30.27;27.00;;;;;;;18.81;78.47;95973.31;4991963;28;20661;-82
2023/06/23 04:38:50;;;;;;;31.52;26.70;;;;;;;19.06;77.47;95974.56;4984244;28;20190;-86
2023/06/23 04:41:18;;;;;;;30.33;26.52;;;;;;;19.10;77.11;95981.09;4992255;28;20195;-85
2023/06/23 04:43:46;;;;;;;31.00;27.60;;;;;;;18.99;76.68;95992.13;5000120;28;20206;-85
2023/06/23 04:46:16;;;;;;;32.58;29.17;;;;;;;18.53;78.91;95996.88;4978176;28;20586;-85
2023/06/23 04:48:48;;;;;;;32.58;29.15;;;;;;;18.64;79.26;95999.88;4986323;28;20219;-84
2023/06/23 04:51:16;;;;;;;33.38;28.83;;;;;;;18.55;79.95;95998.34;5007097;28;20231;-84
2023/06/23 04:53:48;;;;;;;33.88;30.38;;;;;;;18.74;78.60;96009.31;4994528;28;20207;-85
2023/06/23 04:56:16;;;;;;;34.85;29.20;;;;;;;19.25;75.58;96007.31;5009033;28;20231;-85
2023/06/23 04:58:42;;;;;;;35.33;31.42;;;;;;;19.23;76.34;96009.34;4982115;28;20645;-85
2023/06/23 05:01:10;;;;;;;36.67;31.98;;;;;;;19.28;76.27;96019.31;4978919;28;20187;-85
2023/06/23 05:03:36;;;;;;;36.28;31.75;;;;;;;19.24;75.82;96016.22;4981765;28;20250;-85
2023/06/23 05:06:02;;;;;;;39.70;32.65;;;;;;;18.58;77.76;96019.00;4978573;28;20199;-85
2023/06/23 05:08:28;;;;;;;37.75;33.65;;;;;;;18.87;76.96;96020.75;4978340;28;20181;-84
2023/06/23 05:10:58;;;;;;;38.53;34.05;;;;;;;18.86;76.75;96029.66;4994437;28;20192;-84
2023/06/23 05:13:26;;;;;;;36.28;31.67;;;;;;;19.29;75.02;96028.84;4989185;28;20282;-84
2023/06/23 05:15:52;;;;;;;38.65;32.85;;;;;;;19.52;73.26;96027.63;4978653;28;20662;-85
2023/06/23 05:18:17;;;;;;;40.10;33.67;;;;;;;19.83;71.64;96039.59;4992979;28;20227;-85
2023/06/23 05:20:44;;;;;;;38.40;33.47;;;;;;;19.83;71.94;96044.06;4979607;28;20184;-83
2023/06/23 05:23:12;;;;;;;40.00;35.13;;;;;;;19.71;72.76;96043.78;4993215;28;20219;-87
2023/06/23 05:25:38;;;;;;;39.00;33.38;;;;;;;19.68;73.34;96039.69;5001547;28;20183;-87
2023/06/23 05:28:04;;;;;;;38.78;33.83;;;;;;;19.52;73.81;96034.69;4985422;28;20186;-87
2023/06/23 05:30:30;;;;;;;39.33;35.05;;;;;;;19.47;73.62;96037.09;4985907;28;20184;-86
2023/06/23 05:32:56;;;;;;;40.38;33.63;;;;;;;19.98;71.41;96028.94;4985945;28;20183;-85
2023/06/23 05:35:22;;;;;;;38.97;33.75;;;;;;;20.01;71.10;96034.63;4992926;28;20283;-86
2023/06/23 05:37:48;;;;;;;36.15;32.25;;;;;;;20.09;70.14;96031.84;4994244;28;20626;-86
2023/06/23 05:40:14;;;;;;;37.58;32.78;;;;;;;19.78;71.67;96036.72;4986013;28;20191;-86
2023/06/23 05:42:40;;;;;;;37.83;32.05;;;;;;;19.71;72.67;96026.16;4985684;28;20595;-86
2023/06/23 05:45:06;;;;;;;38.83;33.53;;;;;;;19.43;73.59;96036.63;4987854;28;20212;-85
2023/06/23 05:47:37;;;;;;;41.95;34.45;;;;;;;19.35;74.00;96034.16;4984282;28;20266;-86
2023/06/23 05:50:06;;;;;;;42.13;34.38;;;;;;;19.25;75.23;96033.66;4984809;28;20215;-85
2023/06/23 05:52:33;;;;;;;40.40;33.70;;;;;;;19.06;75.73;96035.09;4990782;28;20211;-86
2023/06/23 05:55:01;;;;;;;38.78;33.35;;;;;;;19.03;75.85;96047.84;4980214;28;20227;-84
2023/06/23 05:57:29;;;;;;;45.30;35.08;;;;;;;19.06;75.68;96040.38;4989901;28;20661;-85
2023/06/23 06:00:04;;;;;;;39.40;32.28;;;;;;;18.95;75.16;96043.50;4969525;28;20188;-85
2023/06/23 06:02:31;;;;;;;42.05;34.47;;;;;;;18.79;76.25;96052.44;4989102;28;20192;-84
2023/06/23 06:05:22;;;;;;;;;;;;;;;;;;;;;
2023/06/23 06:07:49;;;;;;;40.60;33.42;;;;;;;20.43;68.94;96059.22;4999589;28;20565;-84
2023/06/23 06:10:15;;;;;;;38.45;32.67;;;;;;;21.35;65.91;96069.22;4985282;28;20275;-85
2023/06/23 06:12:44;;;;;;;32.65;29.13;;;;;;;21.75;62.73;96063.97;4990019;28;20190;-86
2023/06/23 06:15:12;;;;;;;36.90;31.10;;;;;;;21.06;64.37;96072.22;4980726;28;20211;-85
2023/06/23 06:17:39;;;;;;;35.00;30.13;;;;;;;20.58;65.54;96081.00;4987234;28;20272;-84
2023/06/23 06:20:06;;;;;;;34.03;30.08;;;;;;;20.05;67.92;96083.34;4976598;28;20188;-86
2023/06/23 06:22:35;;;;;;;33.80;30.20;;;;;;;19.75;69.27;96080.09;5003340;28;20215;-86
2023/06/23 06:25:02;;;;;;;34.28;29.33;;;;;;;19.82;69.46;96085.41;4994168;28;20210;-85
2023/06/23 06:27:28;;;;;;;34.45;28.10;;;;;;;20.16;68.87;96081.16;4992846;28;20219;-85
2023/06/23 06:29:55;;;;;;;34.38;30.05;;;;;;;19.76;69.48;96094.06;4995373;28;20183;-86
2023/06/23 06:32:21;;;;;;;35.60;31.73;;;;;;;19.30;72.41;96098.94;5002731;28;20291;-85
2023/06/23 06:34:47;;;;;;;34.47;29.80;;;;;;;19.14;72.39;96106.06;5008530;28;20216;-80
2023/06/23 06:37:13;;;;;;;38.50;31.95;;;;;;;18.90;73.93;96104.59;4981316;28;20199;-79
2023/06/23 06:39:39;;;;;;;39.10;32.67;;;;;;;18.67;75.52;96103.94;4996250;28;20751;-85
2023/06/23 06:42:05;;;;;;;41.25;32.92;;;;;;;18.55;75.90;96113.22;4995044;28;20259;-84
2023/06/23 06:44:30;;;;;;;35.67;31.58;;;;;;;18.59;75.11;96110.06;4986515;28;20205;-84
2023/06/23 06:46:56;;;;;;;37.33;31.92;;;;;;;18.88;73.12;96109.22;4982395;28;20207;-85
2023/06/23 06:49:23;;;;;;;34.50;29.52;;;;;;;19.26;71.56;96111.66;4990394;28;20236;-85
2023/06/23 06:51:49;;;;;;;36.10;30.55;;;;;;;19.51;70.73;96117.34;5000822;28;20188;-84
2023/06/23 06:54:15;;;;;;;31.45;28.05;;;;;;;20.77;65.11;96126.16;5006091;28;20239;-80
2023/06/23 06:56:41;;;;;;;29.48;25.88;;;;;;;21.61;60.81;96131.03;4977056;28;20712;-83
2023/06/23 06:59:07;;;;;;;30.80;25.77;;;;;;;22.77;56.68;96132.13;4977080;28;20192;-82
2023/06/23 07:01:32;;;;;;;27.10;24.20;;;;;;;23.20;54.40;96128.91;5000333;28;20246;-84
2023/06/23 07:03:58;;;;;;;28.60;24.48;;;;;;;22.20;57.72;96135.53;5001214;28;20200;-84
2023/06/23 07:06:26;;;;;;;28.27;25.27;;;;;;;22.72;56.02;96137.25;5006377;28;20192;-84
2023/06/23 07:08:51;;;;;;;25.10;22.45;;;;;;;23.80;53.11;96139.16;4992046;28;20184;-84
2023/06/23 07:11:17;;;;;;;29.30;25.88;;;;;;;22.72;55.52;96141.75;5021473;28;20184;-84
2023/06/23 07:13:42;;;;;;;25.38;22.70;;;;;;;22.21;57.35;96153.84;5004186;28;20247;-84
2023/06/23 07:16:07;;;;;;;26.30;23.40;;;;;;;22.01;58.12;96148.56;5008940;28;20593;-84
2023/06/23 07:18:33;;;;;;;27.58;22.95;;;;;;;21.63;59.52;96161.53;5009444;28;20176;-85
2023/06/23 07:21:00;;;;;;;25.98;23.05;;;;;;;21.65;59.22;96164.00;5005569;28;20675;-85
2023/06/23 07:23:25;;;;;;;26.08;22.92;;;;;;;21.63;59.48;96164.19;4981617;28;20764;-87
2023/06/23 07:25:50;;;;;;;27.33;21.27;;;;;;;22.01;58.57;96174.19;4999031;28;20183;-85
2023/06/23 07:28:16;;;;;;;27.20;22.70;;;;;;;22.43;57.51;96177.41;4992632;28;20188;-87
2023/06/23 07:30:41;;;;;;;24.98;22.33;;;;;;;22.17;55.95;96176.44;4998749;28;21022;-85
2023/06/23 07:33:06;;;;;;;24.00;21.15;;;;;;;22.45;56.41;96170.09;4994908;28;20641;-86
2023/06/23 07:35:32;;;;;;;25.17;22.48;;;;;;;22.63;55.44;96178.22;4995914;28;20204;-86
2023/06/23 07:37:57;;;;;;;23.65;20.98;;;;;;;22.75;55.62;96175.72;4985155;28;20222;-87
2023/06/23 07:40:23;;;;;;;22.48;20.08;;;;;;;23.41;53.10;96186.91;5000776;28;20227;-84
2023/06/23 07:42:48;;;;;;;22.63;19.92;;;;;;;23.70;52.57;96179.41;4982375;28;20196;-85
2023/06/23 07:45:13;;;;;;;23.17;20.35;;;;;;;23.61;52.19;96192.13;4999132;28;20200;-85
2023/06/23 07:47:39;;;;;;;23.17;19.77;;;;;;;23.66;52.04;96191.47;4981997;28;20214;-85
2023/06/23 07:50:05;;;;;;;21.45;19.15;;;;;;;24.32;49.48;96192.84;4991805;28;20251;-86
2023/06/23 07:52:30;;;;;;;22.80;20.33;;;;;;;24.19;49.49;96189.22;4998469;28;20243;-86
2023/06/23 07:54:56;;;;;;;21.90;19.48;;;;;;;24.82;48.42;96193.53;5003463;28;20215;-84
2023/06/23 07:57:21;;;;;;;19.08;17.10;;;;;;;25.18;46.80;96194.59;5002397;28;20246;-84
2023/06/23 07:59:47;;;;;;;19.40;17.40;;;;;;;25.57;46.11;96209.25;4990833;28;20198;-84
2023/06/23 08:02:12;;;;;;;21.52;18.15;;;;;;;24.84;47.11;96213.56;4987595;28;20541;-84
2023/06/23 08:04:38;;;;;;;19.02;17.05;;;;;;;25.60;46.78;96216.75;5000824;28;20648;-87
2023/06/23 08:07:03;;;;;;;19.25;16.88;;;;;;;25.61;45.99;96216.53;4988280;28;20730;-85
2023/06/23 08:09:29;;;;;;;20.75;18.33;;;;;;;25.67;45.04;96220.94;4996198;28;20188;-84
2023/06/23 08:11:54;;;;;;;21.08;18.70;;;;;;;25.29;44.74;96225.75;4999163;28;20207;-86
2023/06/23 08:14:20;;;;;;;19.75;16.67;;;;;;;25.14;45.50;96229.59;4999257;28;20258;-86
2023/06/23 08:16:46;;;;;;;20.25;18.15;;;;;;;24.08;48.28;96243.00;4991058;28;20247;-78
2023/06/23 08:19:11;;;;;;;19.98;16.75;;;;;;;24.63;47.20;96231.75;4996230;28;20241;-84
2023/06/23 08:21:37;;;;;;;18.95;17.00;;;;;;;24.37;47.44;96232.81;4995045;28;20549;-83
2023/06/23 08:24:02;;;;;;;21.80;16.52;;;;;;;24.04;49.49;96235.69;4995882;28;20204;-82
2023/06/23 08:26:27;;;;;;;19.10;17.23;;;;;;;23.95;49.48;96249.22;4995080;28;20191;-83
2023/06/23 08:28:53;;;;;;;20.70;18.45;;;;;;;23.36;50.13;96236.25;5004188;28;20640;-86
2023/06/23 08:31:18;;;;;;;19.38;17.23;;;;;;;23.35;50.66;96246.03;4981084;28;20367;-85
2023/06/23 08:33:44;;;;;;;21.70;18.90;;;;;;;22.89;52.27;96247.03;5011822;28;20230;-84
2023/06/23 08:36:09;;;;;;;18.75;16.85;;;;;;;22.93;51.27;96254.53;4998715;28;20221;-86
2023/06/23 08:38:34;;;;;;;19.25;17.30;;;;;;;22.80;51.95;96255.38;4994208;28;20650;-87
2023/06/23 08:41:00;;;;;;;20.85;18.73;;;;;;;22.48;53.72;96254.38;4991907;28;20199;-86
2023/06/23 08:43:26;;;;;;;19.13;15.75;;;;;;;22.84;53.31;96259.22;4983513;28;20195;-86
2023/06/23 08:45:56;;;;;;;19.50;17.10;;;;;;;22.34;53.89;96261.50;5001216;28;20555;-83
2023/06/23 08:48:26;;;;;;;20.10;17.95;;;;;;;22.57;54.15;96263.72;5009097;28;20176;-83
2023/06/23 08:50:53;;;;;;;18.52;16.63;;;;;;;22.60;53.04;96264.13;4998375;28;20265;-85
2023/06/23 08:53:20;;;;;;;17.50;15.77;;;;;;;22.86;52.67;96265.94;4992074;28;20226;-84
2023/06/23 08:55:45;;;;;;;20.92;16.33;;;;;;;22.95;52.48;96265.72;4999603;28;20208;-83
2023/06/23 08:58:11;;;;;;;17.88;16.08;;;;;;;22.33;54.06;96271.25;4998058;28;20188;-84
2023/06/23 09:00:36;;;;;;;18.20;15.48;;;;;;;23.01;52.93;96272.84;4989737;28;20206;-83
2023/06/23 09:03:01;;;;;;;18.40;15.40;;;;;;;23.28;52.35;96279.69;4997843;28;20274;-84
2023/06/23 09:05:27;;;;;;;15.30;13.73;;;;;;;23.83;50.21;96274.78;4992139;28;20246;-86
2023/06/23 09:07:52;;;;;;;17.00;15.27;;;;;;;23.43;51.57;96279.44;5000371;28;20222;-82
2023/06/23 09:10:18;;;;;;;18.40;16.48;;;;;;;23.45;50.13;96277.41;4998851;28;20202;-85
2023/06/23 09:13:24;;;;;;;17.50;15.68;;;;;;;23.72;50.19;96283.41;4988408;28;20247;-84
2023/06/23 09:15:50;;;;;;;16.15;14.65;;;;;;;23.90;49.40;96280.88;4941996;29;20528;-85
2023/06/23 09:18:16;;;;;;;16.73;15.02;;;;;;;23.93;49.82;96293.69;4933143;29;20186;-85
2023/06/23 09:20:49;;;;;;;18.13;16.15;;;;;;;23.51;50.70;96289.00;4936424;29;20238;-84
2023/06/23 09:23:19;;;;;;;17.58;15.32;;;;;;;23.63;50.66;96282.03;4916618;29;20274;-83
2023/06/23 09:25:49;;;;;;;17.67;15.40;;;;;;;23.85;50.18;96282.53;4928495;29;20196;-82
2023/06/23 09:28:26;;;;;;;17.88;15.98;;;;;;;23.55;50.68;96293.66;4920713;29;20201;-81
2023/06/23 09:30:53;;;;;;;17.75;16.00;;;;;;;23.17;50.26;96285.66;4939106;29;20190;-82
2023/06/23 09:33:19;;;;;;;17.80;15.68;;;;;;;22.94;51.72;96301.19;4907746;29;20646;-83
2023/06/23 09:35:49;;;;;;;15.32;13.73;;;;;;;23.58;50.22;96305.69;4940088;29;20289;-81
2023/06/23 09:38:19;;;;;;;14.70;13.23;;;;;;;23.60;50.81;96312.44;4939132;29;20193;-82
2023/06/23 09:41:04;;;;;;;15.70;14.20;;;;;;;23.92;50.04;96318.59;4941511;29;20202;-82
2023/06/23 09:43:30;;;;;;;15.57;13.90;;;;;;;24.44;49.91;96302.59;4932773;29;20209;-82
2023/06/23 09:45:55;;;;;;;16.52;13.82;;;;;;;24.69;47.92;96303.41;4926177;29;20197;-82
2023/06/23 09:48:33;;;;;;;16.70;15.05;;;;;;;24.88;47.69;96306.09;4922057;29;20214;-82
2023/06/23 09:51:00;;;;;;;17.45;15.13;;;;;;;24.27;49.10;96307.56;4925539;28;20185;-81
2023/06/23 09:53:25;;;;;;;16.63;14.93;;;;;;;23.76;49.36;96303.16;4997764;28;20216;-82
2023/06/23 09:55:51;;;;;;;16.27;14.60;;;;;;;23.68;49.85;96316.69;5018305;28;20208;-82
2023/06/23 09:58:17;;;;;;;16.42;14.57;;;;;;;23.31;50.39;96316.38;4997056;28;20235;-82
2023/06/23 10:00:42;;;;;;;16.42;14.70;;;;;;;23.18;50.83;96314.59;5009214;28;20195;-82
2023/06/23 10:03:08;;;;;;;16.35;14.48;;;;;;;23.97;49.69;96321.44;5014723;28;20183;-80
2023/06/23 10:05:34;;;;;;;15.45;13.85;;;;;;;24.23;49.38;96312.50;4997872;28;20272;-81
2023/06/23 10:08:11;;;;;;;15.95;12.90;;;;;;;24.71;48.01;96313.81;4992730;28;20189;-80
2023/06/23 10:10:46;;;;;;;13.73;12.32;;;;;;;24.43;48.00;96325.66;4967987;28;20267;-81
2023/06/23 10:13:12;;;;;;;17.00;14.25;;;;;;;23.92;48.66;96312.47;4975836;28;20559;-81
2023/06/23 10:15:40;;;;;;;12.95;11.75;;;;;;;24.17;48.21;96307.25;4974844;28;20215;-80
2023/06/23 10:18:06;;;;;;;14.75;12.63;;;;;;;24.71;47.01;96305.84;4998429;28;20183;-84
2023/06/23 10:20:31;;;;;;;13.30;11.98;;;;;;;24.64;46.53;96297.09;4995431;28;20207;-83
2023/06/23 10:22:58;;;;;;;13.93;12.60;;;;;;;24.80;45.78;96304.53;4991038;28;20274;-81
2023/06/23 10:25:25;;;;;;;11.77;10.57;;;;;;;25.13;45.62;96313.03;4998632;28;20218;-81
2023/06/23 10:27:54;;;;;;;12.70;11.50;;;;;;;25.27;45.22;96313.72;5018836;28;20243;-81
2023/06/23 10:30:20;;;;;;;12.70;11.40;;;;;;;25.01;45.11;96309.44;4991877;28;20201;-83
2023/06/23 10:32:52;;;;;;;12.02;10.77;;;;;;;25.42;45.51;96311.47;4999734;28;20196;-83
2023/06/23 10:35:20;;;;;;;11.10;10.10;;;;;;;25.28;45.31;96314.53;4999295;28;20747;-83
2023/06/23 10:37:47;;;;;;;11.40;10.38;;;;;;;24.64;44.96;96308.53;5008166;28;20184;-86
2023/06/23 10:40:18;;;;;;;12.30;11.00;;;;;;;24.01;45.27;96304.06;4999714;28;20183;-83
2023/06/23 10:42:46;;;;;;;11.35;10.27;;;;;;;24.10;47.24;96303.81;5007320;28;20187;-84
2023/06/23 10:45:11;;;;;;;11.93;10.48;;;;;;;24.23;46.64;96303.72;5001340;28;20199;-84
2023/06/23 10:47:37;;;;;;;11.20;10.10;;;;;;;24.01;47.37;96301.41;4987833;28;20183;-84
2023/06/23 10:50:03;;;;;;;10.27;9.18;;;;;;;23.80;46.63;96299.09;5004504;28;20187;-83
2023/06/23 10:52:28;;;;;;;11.20;9.30;;;;;;;24.22;46.07;96291.50;5006312;28;20180;-83
2023/06/23 10:54:53;;;;;;;12.88;9.80;;;;;;;24.34;46.34;96303.06;5005540;28;20270;-82
2023/06/23 10:57:19;;;;;;;9.55;8.48;;;;;;;24.30;44.88;96304.50;5007026;28;20286;-83
2023/06/23 10:59:57;;;;;;;10.15;8.68;;;;;;;23.92;44.15;96301.88;5004186;28;20222;-84
2023/06/23 11:02:23;;;;;;;8.13;7.35;;;;;;;23.93;44.50;96308.81;5015512;28;20187;-82
2023/06/23 11:04:55;;;;;;;9.82;8.68;;;;;;;23.39;45.53;96310.84;5006087;28;20200;-83
2023/06/23 11:07:20;;;;;;;8.75;7.88;;;;;;;23.02;46.46;96315.03;5001198;28;20186;-84
2023/06/23 11:09:58;;;;;;;9.55;8.55;;;;;;;22.96;46.53;96320.31;5001827;28;20215;-82
2023/06/23 11:12:39;;;;;;;9.93;8.80;;;;;;;23.16;46.67;96321.13;5010872;28;20194;-84
2023/06/23 11:15:08;;;;;;;8.82;7.68;;;;;;;23.50;46.76;96319.16;5039485;28;20210;-86
2023/06/23 11:17:47;;;;;;;8.40;7.60;;;;;;;23.39;46.53;96316.16;5035013;28;20194;-84
2023/06/23 11:20:24;;;;;;;8.98;7.53;;;;;;;23.88;44.17;96320.06;5010287;28;20191;-83
2023/06/23 11:22:59;;;;;;;8.45;7.55;;;;;;;23.94;43.79;96313.91;5025773;28;20199;-84
2023/06/23 11:25:29;;;;;;;8.55;7.70;;;;;;;24.08;44.14;96313.81;5011096;28;20176;-83